createdAt,value
2023-01-20T00:00:17.238Z,99.99
2023-01-20T00:01:07.161Z,99.99
2023-01-20T00:01:57.164Z,99.99
2023-01-20T00:02:47.171Z,99.99
2023-01-20T00:03:37.223Z,99.99
2023-01-20T00:04:27.127Z,99.99
2023-01-20T00:05:17.109Z,99.99
2023-01-20T00:06:07.130Z,99.99
2023-01-20T00:06:57.100Z,99.99
2023-01-20T00:07:47.098Z,99.99
2023-01-20T00:08:37.120Z,99.99
2023-01-20T00:09:27.065Z,99.99
2023-01-20T00:10:17.077Z,99.99
2023-01-20T00:11:07.036Z,99.99
2023-01-20T00:11:57.064Z,99.99
2023-01-20T00:12:47.026Z,99.99
2023-01-20T00:13:37.044Z,99.99
2023-01-20T00:14:27.007Z,99.99
2023-01-20T00:15:16.998Z,99.99
2023-01-20T00:16:07.041Z,99.99
2023-01-20T00:16:56.999Z,99.99
2023-01-20T00:17:46.982Z,99.99
2023-01-20T00:18:37.001Z,99.99
2023-01-20T00:19:26.957Z,99.99
2023-01-20T00:20:16.946Z,99.99
2023-01-20T00:21:06.962Z,99.99
2023-01-20T00:21:56.957Z,99.99
2023-01-20T00:22:46.918Z,99.99
2023-01-20T00:23:36.917Z,99.99
2023-01-20T00:24:26.906Z,99.99
2023-01-20T00:25:16.892Z,99.99
2023-01-20T00:26:06.901Z,99.99
2023-01-20T00:26:56.907Z,99.99
2023-01-20T00:27:46.857Z,99.99
2023-01-20T00:28:36.874Z,99.99
2023-01-20T00:29:26.875Z,99.99
2023-01-20T00:30:16.843Z,99.99
2023-01-20T00:31:06.872Z,99.99
2023-01-20T00:31:56.832Z,99.99
2023-01-20T00:32:46.804Z,99.99
2023-01-20T00:33:36.812Z,99.99
2023-01-20T00:34:26.825Z,99.99
2023-01-20T00:35:16.776Z,99.99
2023-01-20T00:36:18.479Z,99.99
2023-01-20T00:37:08.669Z,99.99
2023-01-20T00:37:46.756Z,99.99
2023-01-20T00:38:48.457Z,99.99
2023-01-20T00:39:26.740Z,99.99
2023-01-20T00:40:16.732Z,99.99
2023-01-20T00:41:06.714Z,99.99
2023-01-20T00:41:56.720Z,99.99
2023-01-20T00:42:46.689Z,99.99
2023-01-20T00:43:36.732Z,99.99
2023-01-20T00:44:26.711Z,99.99
2023-01-20T00:45:16.669Z,99.99
2023-01-20T00:46:06.650Z,99.99
2023-01-20T00:46:56.677Z,99.99
2023-01-20T00:47:46.669Z,99.99
2023-01-20T00:48:36.647Z,99.99
2023-01-20T00:49:26.637Z,99.99
2023-01-20T00:50:16.638Z,99.99
2023-01-20T00:51:06.616Z,99.99
2023-01-20T00:51:56.625Z,99.99
2023-01-20T00:52:46.579Z,99.99
2023-01-20T00:53:36.584Z,99.99
2023-01-20T00:54:26.565Z,99.99
2023-01-20T00:55:16.598Z,99.99
2023-01-20T00:56:06.644Z,99.99
2023-01-20T00:56:56.546Z,99.99
2023-01-20T00:57:46.621Z,99.99
2023-01-20T00:58:36.528Z,99.99
2023-01-20T00:59:26.509Z,99.99
2023-01-20T01:00:16.535Z,99.99
2023-01-20T01:01:06.652Z,99.99
2023-01-20T01:01:56.624Z,99.99
2023-01-20T01:02:46.485Z,99.99
2023-01-20T01:03:36.480Z,99.99
2023-01-20T01:04:26.489Z,99.99
2023-01-20T01:05:16.465Z,99.99
2023-01-20T01:06:06.458Z,99.99
2023-01-20T01:06:56.424Z,99.99
2023-01-20T01:07:46.517Z,99.99
2023-01-20T01:08:36.458Z,99.99
2023-01-20T01:09:26.403Z,99.99
2023-01-20T01:10:16.646Z,99.99
2023-01-20T01:11:06.429Z,99.99
2023-01-20T01:11:56.417Z,99.99
2023-01-20T01:12:46.373Z,99.99
2023-01-20T01:13:36.502Z,99.99
2023-01-20T01:14:26.345Z,99.99
2023-01-20T01:15:16.352Z,99.99
2023-01-20T01:16:06.354Z,99.99
2023-01-20T01:16:57.459Z,99.99
2023-01-20T01:17:46.301Z,99.99
2023-01-20T01:18:36.311Z,99.99
2023-01-20T01:19:26.294Z,99.99
2023-01-20T01:20:16.370Z,99.99
2023-01-20T01:21:06.287Z,99.99
2023-01-20T01:21:56.267Z,99.99
2023-01-20T01:22:47.221Z,99.99
2023-01-20T01:23:36.278Z,99.99
2023-01-20T01:24:26.291Z,99.99
2023-01-20T01:25:16.350Z,99.99
2023-01-20T01:26:06.547Z,99.99
2023-01-20T01:26:56.220Z,99.99
2023-01-20T01:27:46.352Z,99.99
2023-01-20T01:28:36.206Z,99.99
2023-01-20T01:29:26.176Z,99.99
2023-01-20T01:30:16.169Z,99.99
2023-01-20T01:31:06.262Z,99.99
2023-01-20T01:31:56.160Z,99.99
2023-01-20T01:32:46.139Z,99.99
2023-01-20T01:33:36.166Z,99.99
2023-01-20T01:34:26.175Z,99.99
2023-01-20T01:35:16.548Z,99.99
2023-01-20T01:36:06.137Z,99.99
2023-01-20T01:36:56.101Z,99.99
2023-01-20T01:37:46.128Z,99.99
2023-01-20T01:38:36.140Z,99.99
2023-01-20T01:39:26.101Z,99.99
2023-01-20T01:40:16.066Z,99.99
2023-01-20T01:41:06.046Z,99.99
2023-01-20T01:41:56.056Z,99.99
2023-01-20T01:42:46.064Z,99.99
2023-01-20T01:43:36.031Z,99.99
2023-01-20T01:44:26.016Z,99.99
2023-01-20T01:45:16.433Z,99.99
2023-01-20T01:46:06.046Z,99.99
2023-01-20T01:46:56.023Z,99.99
2023-01-20T01:47:45.982Z,99.99
2023-01-20T01:48:35.999Z,99.99
2023-01-20T01:49:25.964Z,99.99
2023-01-20T01:50:15.953Z,99.99
2023-01-20T01:51:05.972Z,99.99
2023-01-20T01:51:55.941Z,99.99
2023-01-20T01:52:45.932Z,99.99
2023-01-20T01:53:35.956Z,99.99
2023-01-20T01:54:25.931Z,99.99
2023-01-20T01:55:16.127Z,99.99
2023-01-20T01:56:05.889Z,99.99
2023-01-20T01:56:55.900Z,99.99
2023-01-20T01:57:45.863Z,99.99
2023-01-20T01:58:35.893Z,99.99
2023-01-20T01:59:25.870Z,99.99
2023-01-20T02:00:15.857Z,99.99
2023-01-20T02:01:05.873Z,99.99
2023-01-20T02:01:55.971Z,99.99
2023-01-20T02:02:45.823Z,99.99
2023-01-20T02:03:35.810Z,99.99
2023-01-20T02:04:25.826Z,99.99
2023-01-20T02:05:16.060Z,99.99
2023-01-20T02:06:05.787Z,99.99
2023-01-20T02:06:55.766Z,99.99
2023-01-20T02:07:45.778Z,99.99
2023-01-20T02:08:35.761Z,99.99
2023-01-20T02:09:25.762Z,99.99
2023-01-20T02:10:15.740Z,99.99
2023-01-20T02:11:05.734Z,99.99
2023-01-20T02:11:55.740Z,99.99
2023-01-20T02:12:45.710Z,99.99
2023-01-20T02:13:35.694Z,99.99
2023-01-20T02:14:25.699Z,99.99
2023-01-20T02:15:16.036Z,99.99
2023-01-20T02:16:05.684Z,99.99
2023-01-20T02:16:55.665Z,99.99
2023-01-20T02:17:45.681Z,99.99
2023-01-20T02:18:35.670Z,99.99
2023-01-20T02:19:25.633Z,99.99
2023-01-20T02:20:15.635Z,99.99
2023-01-20T02:21:05.636Z,99.99
2023-01-20T02:21:55.596Z,99.99
2023-01-20T02:22:45.624Z,99.99
2023-01-20T02:23:35.614Z,99.99
2023-01-20T02:24:25.578Z,99.99
2023-01-20T02:25:15.930Z,99.99
2023-01-20T02:26:05.562Z,99.99
2023-01-20T02:26:55.555Z,99.99
2023-01-20T02:27:45.546Z,99.99
2023-01-20T02:28:35.526Z,99.99
2023-01-20T02:29:25.544Z,99.99
2023-01-20T02:30:15.541Z,99.99
2023-01-20T02:31:05.498Z,99.99
2023-01-20T02:31:55.572Z,99.99
2023-01-20T02:32:45.505Z,99.99
2023-01-20T02:33:35.476Z,99.99
2023-01-20T02:34:25.463Z,99.99
2023-01-20T02:35:15.756Z,99.99
2023-01-20T02:36:05.449Z,99.99
2023-01-20T02:36:55.442Z,99.99
2023-01-20T02:37:45.455Z,99.99
2023-01-20T02:38:35.427Z,99.99
2023-01-20T02:39:27.605Z,99.99
2023-01-20T02:40:15.407Z,99.99
2023-01-20T02:41:05.437Z,99.99
2023-01-20T02:41:55.393Z,99.99
2023-01-20T02:42:45.386Z,99.99
2023-01-20T02:43:35.398Z,99.99
2023-01-20T02:44:25.368Z,99.99
2023-01-20T02:45:15.675Z,99.99
2023-01-20T02:46:05.418Z,99.99
2023-01-20T02:46:55.322Z,99.99
2023-01-20T02:47:51.710Z,99.99
2023-01-20T02:48:36.330Z,99.99
2023-01-20T02:49:25.300Z,99.99
2023-01-20T02:50:15.304Z,99.99
2023-01-20T02:51:05.326Z,99.99
2023-01-20T02:51:55.302Z,99.99
2023-01-20T02:52:45.271Z,99.99
2023-01-20T02:53:35.251Z,99.99
2023-01-20T02:54:25.247Z,99.99
2023-01-20T02:55:15.585Z,99.99
2023-01-20T02:56:05.232Z,99.99
2023-01-20T02:56:55.207Z,99.99
2023-01-20T02:57:45.208Z,99.99
2023-01-20T02:58:35.201Z,99.99
2023-01-20T02:59:25.208Z,99.99
2023-01-20T03:00:15.181Z,99.99
2023-01-20T03:01:05.317Z,99.99
2023-01-20T03:01:55.354Z,99.99
2023-01-20T03:02:45.174Z,99.99
2023-01-20T03:03:35.205Z,99.99
2023-01-20T03:04:25.134Z,99.99
2023-01-20T03:05:15.402Z,99.99
2023-01-20T03:06:05.170Z,99.99
2023-01-20T03:06:55.133Z,99.99
2023-01-20T03:07:45.127Z,99.99
2023-01-20T03:08:35.097Z,99.99
2023-01-20T03:09:25.089Z,99.99
2023-01-20T03:10:15.078Z,99.99
2023-01-20T03:11:05.055Z,99.99
2023-01-20T03:11:55.066Z,99.99
2023-01-20T03:12:45.078Z,99.99
2023-01-20T03:13:35.042Z,99.99
2023-01-20T03:14:25.026Z,99.99
2023-01-20T03:15:15.266Z,99.99
2023-01-20T03:16:05.021Z,99.99
2023-01-20T03:16:55.092Z,99.99
2023-01-20T03:17:44.993Z,99.99
2023-01-20T03:18:34.975Z,99.99
2023-01-20T03:19:24.964Z,99.99
2023-01-20T03:20:14.951Z,99.99
2023-01-20T03:21:04.967Z,99.99
2023-01-20T03:21:54.963Z,99.99
2023-01-20T03:22:44.943Z,99.99
2023-01-20T03:23:34.924Z,99.99
2023-01-20T03:24:24.921Z,99.99
2023-01-20T03:25:15.213Z,99.99
2023-01-20T03:26:04.905Z,99.99
2023-01-20T03:26:54.917Z,99.99
2023-01-20T03:27:44.870Z,99.99
2023-01-20T03:28:34.869Z,99.99
2023-01-20T03:29:24.878Z,99.99
2023-01-20T03:30:14.849Z,99.99
2023-01-20T03:31:04.930Z,99.99
2023-01-20T03:31:54.862Z,99.99
2023-01-20T03:32:44.831Z,99.99
2023-01-20T03:33:34.825Z,99.99
2023-01-20T03:34:24.815Z,99.99
2023-01-20T03:35:14.954Z,99.99
2023-01-20T03:36:04.792Z,99.99
2023-01-20T03:36:54.793Z,99.99
2023-01-20T03:37:44.782Z,99.99
2023-01-20T03:38:34.769Z,99.99
2023-01-20T03:39:24.749Z,99.99
2023-01-20T03:40:14.741Z,99.99
2023-01-20T03:41:04.729Z,99.99
2023-01-20T03:41:54.737Z,99.99
2023-01-20T03:42:44.737Z,99.99
2023-01-20T03:43:35.928Z,99.99
2023-01-20T03:44:24.705Z,99.99
2023-01-20T03:45:14.926Z,99.99
2023-01-20T03:46:04.740Z,99.99
2023-01-20T03:46:54.669Z,99.99
2023-01-20T03:47:44.689Z,99.99
2023-01-20T03:48:34.646Z,99.99
2023-01-20T03:49:24.644Z,99.99
2023-01-20T03:50:14.639Z,99.99
2023-01-20T03:51:04.615Z,99.99
2023-01-20T03:51:54.617Z,99.99
2023-01-20T03:52:48.099Z,99.99
2023-01-20T03:53:34.596Z,99.99
2023-01-20T03:54:24.586Z,99.99
2023-01-20T03:55:14.751Z,99.99
2023-01-20T03:56:04.564Z,99.99
2023-01-20T03:56:54.543Z,99.99
2023-01-20T03:57:44.584Z,99.99
2023-01-20T03:58:34.547Z,99.99
2023-01-20T03:59:24.559Z,99.99
2023-01-20T04:00:14.540Z,99.99
2023-01-20T04:01:09.447Z,99.99
2023-01-20T04:01:55.607Z,99.99
2023-01-20T04:02:44.516Z,99.99
2023-01-20T04:03:34.520Z,99.99
2023-01-20T04:04:24.481Z,99.99
2023-01-20T04:05:14.708Z,99.99
2023-01-20T04:06:04.474Z,99.99
2023-01-20T04:06:54.446Z,99.99
2023-01-20T04:07:44.464Z,99.99
2023-01-20T04:08:34.445Z,99.99
2023-01-20T04:09:24.420Z,99.99
2023-01-20T04:10:14.413Z,99.99
2023-01-20T04:11:04.404Z,99.99
2023-01-20T04:11:54.393Z,99.99
2023-01-20T04:12:44.391Z,99.99
2023-01-20T04:13:34.412Z,99.99
2023-01-20T04:14:24.363Z,99.99
2023-01-20T04:15:14.701Z,99.99
2023-01-20T04:16:04.367Z,99.99
2023-01-20T04:16:54.343Z,99.99
2023-01-20T04:17:44.329Z,99.99
2023-01-20T04:18:34.330Z,99.99
2023-01-20T04:19:24.316Z,99.99
2023-01-20T04:20:14.290Z,99.99
2023-01-20T04:21:04.301Z,99.99
2023-01-20T04:21:54.288Z,99.99
2023-01-20T04:22:44.270Z,99.99
2023-01-20T04:23:34.279Z,99.99
2023-01-20T04:24:24.258Z,99.99
2023-01-20T04:25:14.480Z,99.99
2023-01-20T04:26:04.247Z,99.99
2023-01-20T04:26:54.232Z,99.99
2023-01-20T04:27:44.219Z,99.99
2023-01-20T04:28:34.209Z,99.99
2023-01-20T04:29:24.232Z,99.99
2023-01-20T04:30:14.232Z,99.99
2023-01-20T04:31:04.255Z,99.99
2023-01-20T04:31:54.199Z,99.99
2023-01-20T04:32:44.210Z,99.99
2023-01-20T04:33:34.259Z,99.99
2023-01-20T04:34:24.175Z,99.99
2023-01-20T04:35:14.512Z,99.99
2023-01-20T04:36:04.141Z,99.99
2023-01-20T04:36:54.120Z,99.99
2023-01-20T04:37:44.120Z,99.99
2023-01-20T04:38:34.108Z,99.99
2023-01-20T04:39:24.086Z,99.99
2023-01-20T04:40:14.093Z,99.99
2023-01-20T04:41:04.086Z,99.99
2023-01-20T04:41:54.079Z,99.99
2023-01-20T04:42:44.067Z,99.99
2023-01-20T04:43:34.052Z,99.99
2023-01-20T04:44:24.064Z,99.99
2023-01-20T04:45:14.254Z,99.99
2023-01-20T04:46:04.160Z,99.99
2023-01-20T04:46:54.020Z,99.99
2023-01-20T04:47:43.995Z,99.99
2023-01-20T04:48:33.981Z,99.99
2023-01-20T04:49:23.990Z,99.99
2023-01-20T04:50:14.001Z,99.99
2023-01-20T04:51:03.999Z,99.99
2023-01-20T04:51:53.959Z,99.99
2023-01-20T04:52:43.949Z,99.99
2023-01-20T04:53:33.922Z,99.99
2023-01-20T04:54:23.939Z,99.99
2023-01-20T04:55:14.348Z,99.99
2023-01-20T04:56:03.913Z,99.99
2023-01-20T04:56:53.887Z,99.99
2023-01-20T04:57:43.888Z,99.99
2023-01-20T04:58:33.880Z,99.99
2023-01-20T04:59:23.916Z,99.99
2023-01-20T05:00:13.887Z,99.99
2023-01-20T05:01:03.921Z,99.99
2023-01-20T05:01:53.993Z,99.99
2023-01-20T05:02:43.888Z,99.99
2023-01-20T05:03:33.847Z,99.99
2023-01-20T05:04:23.826Z,99.99
2023-01-20T05:05:14.284Z,99.99
2023-01-20T05:06:03.804Z,99.99
2023-01-20T05:06:53.799Z,99.99
2023-01-20T05:07:43.789Z,99.99
2023-01-20T05:08:33.796Z,99.99
2023-01-20T05:09:23.758Z,99.99
2023-01-20T05:10:13.782Z,99.99
2023-01-20T05:11:03.755Z,99.99
2023-01-20T05:11:53.752Z,99.99
2023-01-20T05:12:50.729Z,99.99
2023-01-20T05:13:33.702Z,99.99
2023-01-20T05:14:23.710Z,99.99
2023-01-20T05:15:18.399Z,99.99
2023-01-20T05:16:03.716Z,99.99
2023-01-20T05:16:53.672Z,99.99
2023-01-20T05:17:43.710Z,99.99
2023-01-20T05:18:33.661Z,99.99
2023-01-20T05:19:23.659Z,99.99
2023-01-20T05:20:13.639Z,99.99
2023-01-20T05:21:03.637Z,99.99
2023-01-20T05:21:53.635Z,99.99
2023-01-20T05:22:43.647Z,99.99
2023-01-20T05:23:33.630Z,99.99
2023-01-20T05:24:23.635Z,99.99
2023-01-20T05:25:13.910Z,99.99
2023-01-20T05:26:03.574Z,99.99
2023-01-20T05:26:53.578Z,99.99
2023-01-20T05:27:43.567Z,99.99
2023-01-20T05:28:33.570Z,99.99
2023-01-20T05:29:23.536Z,99.99
2023-01-20T05:30:13.547Z,99.99
2023-01-20T05:31:03.682Z,99.99
2023-01-20T05:31:53.539Z,99.99
2023-01-20T05:32:43.506Z,99.99
2023-01-20T05:33:33.524Z,99.99
2023-01-20T05:34:23.504Z,99.99
2023-01-20T05:35:13.982Z,99.99
2023-01-20T05:36:03.484Z,99.99
2023-01-20T05:36:53.462Z,99.99
2023-01-20T05:37:43.465Z,99.99
2023-01-20T05:38:33.434Z,99.99
2023-01-20T05:39:23.453Z,99.99
2023-01-20T05:40:13.457Z,99.99
2023-01-20T05:41:03.421Z,99.99
2023-01-20T05:41:53.413Z,99.99
2023-01-20T05:42:43.401Z,99.99
2023-01-20T05:43:33.389Z,99.99
2023-01-20T05:44:23.376Z,99.99
2023-01-20T05:45:13.606Z,99.99
2023-01-20T05:46:03.384Z,99.99
2023-01-20T05:46:53.348Z,99.99
2023-01-20T05:47:43.370Z,99.99
2023-01-20T05:48:33.330Z,99.99
2023-01-20T05:49:23.319Z,99.99
2023-01-20T05:50:13.340Z,99.99
2023-01-20T05:51:03.312Z,99.99
2023-01-20T05:51:53.308Z,99.99
2023-01-20T05:52:43.287Z,99.99
2023-01-20T05:53:33.297Z,99.99
2023-01-20T05:54:23.278Z,99.99
2023-01-20T05:55:13.762Z,99.99
2023-01-20T05:56:03.257Z,99.99
2023-01-20T05:56:53.237Z,99.99
2023-01-20T05:57:43.255Z,99.99
2023-01-20T05:58:33.227Z,99.99
2023-01-20T05:59:23.207Z,99.99
2023-01-20T06:00:13.196Z,99.99
2023-01-20T06:01:03.275Z,99.99
2023-01-20T06:01:53.204Z,99.99
2023-01-20T06:02:43.236Z,99.99
2023-01-20T06:03:33.189Z,99.99
2023-01-20T06:04:23.188Z,99.99
2023-01-20T06:05:13.559Z,99.99
2023-01-20T06:06:03.155Z,99.99
2023-01-20T06:06:53.149Z,99.99
2023-01-20T06:07:43.118Z,99.99
2023-01-20T06:08:33.107Z,99.99
2023-01-20T06:09:23.110Z,99.99
2023-01-20T06:10:13.123Z,99.99
2023-01-20T06:11:03.080Z,99.99
2023-01-20T06:11:53.071Z,99.99
2023-01-20T06:12:43.083Z,99.99
2023-01-20T06:13:33.495Z,99.99
2023-01-20T06:14:23.068Z,99.99
2023-01-20T06:15:13.492Z,99.99
2023-01-20T06:16:04.209Z,99.99
2023-01-20T06:16:53.023Z,99.99
2023-01-20T06:17:43.021Z,99.99
2023-01-20T06:18:33.025Z,99.99
2023-01-20T06:19:22.982Z,99.99
2023-01-20T06:20:13.004Z,99.99
2023-01-20T06:21:03.002Z,99.99
2023-01-20T06:21:52.975Z,99.99
2023-01-20T06:22:42.949Z,99.99
2023-01-20T06:23:32.961Z,99.99
2023-01-20T06:24:22.957Z,99.99
2023-01-20T06:25:13.367Z,99.99
2023-01-20T06:26:02.959Z,99.99
2023-01-20T06:26:52.905Z,99.99
2023-01-20T06:27:42.913Z,99.99
2023-01-20T06:28:32.921Z,99.99
2023-01-20T06:29:22.882Z,99.99
2023-01-20T06:30:12.899Z,99.99
2023-01-20T06:31:02.995Z,99.99
2023-01-20T06:31:52.893Z,99.99
2023-01-20T06:32:42.842Z,99.99
2023-01-20T06:33:32.834Z,99.99
2023-01-20T06:34:22.838Z,99.99
2023-01-20T06:35:13.248Z,99.99
2023-01-20T06:36:02.860Z,99.99
2023-01-20T06:36:52.807Z,99.99
2023-01-20T06:37:42.783Z,99.99
2023-01-20T06:38:32.802Z,99.99
2023-01-20T06:39:22.763Z,99.99
2023-01-20T06:40:12.769Z,99.99
2023-01-20T06:41:02.781Z,99.99
2023-01-20T06:41:52.751Z,99.99
2023-01-20T06:42:42.730Z,99.99
2023-01-20T06:43:32.733Z,99.99
2023-01-20T06:44:22.747Z,99.99
2023-01-20T06:45:13.042Z,99.99
2023-01-20T06:46:02.776Z,99.99
2023-01-20T06:46:52.806Z,99.99
2023-01-20T06:47:42.685Z,99.99
2023-01-20T06:48:32.694Z,99.99
2023-01-20T06:49:22.671Z,99.99
2023-01-20T06:50:12.672Z,99.99
2023-01-20T06:51:02.681Z,99.99
2023-01-20T06:51:52.681Z,99.99
2023-01-20T06:52:42.628Z,99.99
2023-01-20T06:53:32.628Z,99.99
2023-01-20T06:54:22.627Z,99.99
2023-01-20T06:55:13.222Z,99.99
2023-01-20T06:56:02.590Z,99.99
2023-01-20T06:56:52.633Z,99.99
2023-01-20T06:57:42.599Z,99.99
2023-01-20T06:58:32.567Z,99.99
2023-01-20T06:59:22.556Z,99.99
2023-01-20T07:00:12.557Z,99.99
2023-01-20T07:01:02.650Z,99.99
2023-01-20T07:01:52.646Z,99.99
2023-01-20T07:02:42.561Z,99.99
2023-01-20T07:03:32.526Z,99.99
2023-01-20T07:04:22.501Z,99.99
2023-01-20T07:05:12.938Z,99.99
2023-01-20T07:06:02.498Z,99.99
2023-01-20T07:06:52.478Z,99.99
2023-01-20T07:07:42.475Z,99.99
2023-01-20T07:08:32.467Z,99.99
2023-01-20T07:09:22.436Z,99.99
2023-01-20T07:10:12.433Z,99.99
2023-01-20T07:11:02.453Z,99.99
2023-01-20T07:11:52.419Z,99.99
2023-01-20T07:12:42.415Z,99.99
2023-01-20T07:13:32.430Z,99.99
2023-01-20T07:14:22.381Z,99.99
2023-01-20T07:15:12.473Z,99.99
2023-01-20T07:16:02.425Z,99.99
2023-01-20T07:16:52.408Z,99.99
2023-01-20T07:17:42.358Z,99.99
2023-01-20T07:18:32.368Z,99.99
2023-01-20T07:19:22.354Z,99.99
2023-01-20T07:20:12.337Z,99.99
2023-01-20T07:21:02.306Z,99.99
2023-01-20T07:21:52.327Z,99.99
2023-01-20T07:22:42.298Z,99.99
2023-01-20T07:23:32.302Z,99.99
2023-01-20T07:24:22.297Z,99.99
2023-01-20T07:25:12.660Z,99.99
2023-01-20T07:26:02.258Z,99.99
2023-01-20T07:26:52.257Z,99.99
2023-01-20T07:27:42.263Z,99.99
2023-01-20T07:28:32.250Z,99.99
2023-01-20T07:29:22.236Z,99.99
2023-01-20T07:30:12.246Z,99.99
2023-01-20T07:31:02.219Z,99.99
2023-01-20T07:31:52.222Z,99.99
2023-01-20T07:32:42.165Z,99.99
2023-01-20T07:33:32.167Z,99.99
2023-01-20T07:34:22.163Z,99.99
2023-01-20T07:35:12.182Z,99.99
2023-01-20T07:36:02.156Z,99.99
2023-01-20T07:36:52.153Z,99.99
2023-01-20T07:37:42.124Z,99.99
2023-01-20T07:38:32.133Z,99.99
2023-01-20T07:39:22.117Z,99.99
2023-01-20T07:40:12.133Z,99.99
2023-01-20T07:41:04.742Z,99.99
2023-01-20T07:41:52.084Z,99.99
2023-01-20T07:42:42.082Z,99.99
2023-01-20T07:43:32.070Z,99.99
2023-01-20T07:44:22.073Z,99.99
2023-01-20T07:45:12.188Z,99.99
2023-01-20T07:46:02.123Z,99.99
2023-01-20T07:46:52.048Z,99.99
2023-01-20T07:47:42.010Z,99.99
2023-01-20T07:48:32.027Z,99.99
2023-01-20T07:49:22.023Z,99.99
2023-01-20T07:50:12.005Z,99.99
2023-01-20T07:51:02.023Z,99.99
2023-01-20T07:51:51.990Z,99.99
2023-01-20T07:52:41.975Z,99.99
2023-01-20T07:53:31.969Z,99.99
2023-01-20T07:54:21.971Z,99.99
2023-01-20T07:55:12.009Z,99.99
2023-01-20T07:56:01.932Z,99.99
2023-01-20T07:56:51.941Z,99.99
2023-01-20T07:57:41.940Z,99.99
2023-01-20T07:58:31.909Z,99.99
2023-01-20T07:59:21.899Z,99.99
2023-01-20T08:00:11.918Z,99.99
2023-01-20T08:01:01.963Z,99.99
2023-01-20T08:01:51.912Z,99.99
2023-01-20T08:02:41.881Z,99.99
2023-01-20T08:03:31.862Z,99.99
2023-01-20T08:04:21.835Z,99.99
2023-01-20T08:05:11.861Z,99.99
2023-01-20T08:06:01.823Z,99.99
2023-01-20T08:06:51.835Z,99.99
2023-01-20T08:07:41.828Z,99.99
2023-01-20T08:08:31.813Z,99.99
2023-01-20T08:09:21.806Z,99.99
2023-01-20T08:10:11.788Z,99.99
2023-01-20T08:11:01.835Z,99.99
2023-01-20T08:11:51.775Z,99.99
2023-01-20T08:12:41.746Z,99.99
2023-01-20T08:13:31.759Z,99.99
2023-01-20T08:14:21.744Z,99.99
2023-01-20T08:15:11.715Z,99.99
2023-01-20T08:16:01.703Z,99.99
2023-01-20T08:16:51.747Z,99.99
2023-01-20T08:17:41.695Z,99.99
2023-01-20T08:18:31.731Z,99.99
2023-01-20T08:19:21.693Z,99.99
2023-01-20T08:20:11.675Z,99.99
2023-01-20T08:21:01.669Z,99.99
2023-01-20T08:21:51.676Z,99.99
2023-01-20T08:22:41.636Z,99.99
2023-01-20T08:23:31.649Z,99.99
2023-01-20T08:24:21.614Z,99.99
2023-01-20T08:25:11.627Z,99.99
2023-01-20T08:26:01.616Z,99.99
2023-01-20T08:26:51.636Z,99.99
2023-01-20T08:27:41.600Z,99.99
2023-01-20T08:28:34.375Z,99.99
2023-01-20T08:29:21.592Z,99.99
2023-01-20T08:30:11.578Z,99.99
2023-01-20T08:31:01.644Z,99.99
2023-01-20T08:31:51.671Z,99.99
2023-01-20T08:32:41.525Z,99.99
2023-01-20T08:33:31.532Z,99.99
2023-01-20T08:34:21.520Z,99.99
2023-01-20T08:35:11.497Z,99.99
2023-01-20T08:36:01.492Z,99.99
2023-01-20T08:36:51.472Z,99.99
2023-01-20T08:37:41.471Z,99.99
2023-01-20T08:38:31.471Z,99.99
2023-01-20T08:39:21.471Z,99.99
2023-01-20T08:40:11.445Z,99.99
2023-01-20T08:41:01.441Z,99.99
2023-01-20T08:41:51.478Z,99.99
2023-01-20T08:42:41.409Z,99.99
2023-01-20T08:43:31.419Z,99.99
2023-01-20T08:44:21.413Z,99.99
2023-01-20T08:45:12.252Z,99.99
2023-01-20T08:46:01.424Z,99.99
2023-01-20T08:46:51.379Z,99.99
2023-01-20T08:47:41.370Z,99.99
2023-01-20T08:48:31.366Z,99.99
2023-01-20T08:49:21.350Z,99.99
2023-01-20T08:50:11.358Z,99.99
2023-01-20T08:51:01.382Z,99.99
2023-01-20T08:51:51.329Z,99.99
2023-01-20T08:52:41.303Z,99.99
2023-01-20T08:53:31.296Z,99.99
2023-01-20T08:54:21.287Z,99.99
2023-01-20T08:55:11.308Z,99.99
2023-01-20T08:56:01.286Z,99.99
2023-01-20T08:56:51.256Z,99.99
2023-01-20T08:57:41.277Z,99.99
2023-01-20T08:58:31.262Z,99.99
2023-01-20T08:59:21.255Z,99.99
2023-01-20T09:00:11.279Z,99.99
2023-01-20T09:01:01.257Z,99.99
2023-01-20T09:01:51.214Z,99.99
2023-01-20T09:02:41.377Z,99.99
2023-01-20T09:03:33.085Z,99.99
2023-01-20T09:04:21.174Z,99.99
2023-01-20T09:05:11.163Z,99.99
2023-01-20T09:06:01.175Z,99.99
2023-01-20T09:06:51.155Z,99.99
2023-01-20T09:07:41.148Z,99.99
2023-01-20T09:08:31.155Z,99.99
2023-01-20T09:09:21.146Z,99.99
2023-01-20T09:10:11.161Z,99.99
2023-01-20T09:11:01.140Z,99.99
2023-01-20T09:11:51.498Z,99.99
2023-01-20T09:12:41.088Z,99.99
2023-01-20T09:13:31.112Z,99.99
2023-01-20T09:14:21.091Z,99.99
2023-01-20T09:15:11.064Z,99.99
2023-01-20T09:16:01.114Z,99.99
2023-01-20T09:16:51.045Z,99.99
2023-01-20T09:17:41.065Z,99.99
2023-01-20T09:18:31.032Z,99.99
2023-01-20T09:19:21.028Z,99.99
2023-01-20T09:20:11.038Z,99.99
2023-01-20T09:21:01.000Z,99.99
2023-01-20T09:21:50.999Z,99.99
2023-01-20T09:22:40.988Z,99.99
2023-01-20T09:23:30.961Z,99.99
2023-01-20T09:24:20.989Z,99.99
2023-01-20T09:25:10.942Z,99.99
2023-01-20T09:26:00.942Z,99.99
2023-01-20T09:26:50.927Z,99.99
2023-01-20T09:27:40.909Z,99.99
2023-01-20T09:28:30.933Z,99.99
2023-01-20T09:29:20.920Z,99.99
2023-01-20T09:30:10.890Z,99.99
2023-01-20T09:31:01.082Z,99.99
2023-01-20T09:31:51.031Z,99.99
2023-01-20T09:32:40.875Z,99.99
2023-01-20T09:33:30.859Z,99.99
2023-01-20T09:34:20.851Z,99.99
2023-01-20T09:35:10.869Z,99.99
2023-01-20T09:36:00.835Z,99.99
2023-01-20T09:36:50.845Z,99.99
2023-01-20T09:37:40.808Z,99.99
2023-01-20T09:38:30.805Z,99.99
2023-01-20T09:39:20.777Z,99.99
2023-01-20T09:40:10.811Z,99.99
2023-01-20T09:41:00.790Z,99.99
2023-01-20T09:41:50.771Z,99.99
2023-01-20T09:42:40.749Z,99.99
2023-01-20T09:43:30.774Z,99.99
2023-01-20T09:44:20.786Z,99.99
2023-01-20T09:45:10.726Z,99.99
2023-01-20T09:46:00.758Z,99.99
2023-01-20T09:46:50.713Z,99.99
2023-01-20T09:47:40.693Z,99.99
2023-01-20T09:48:42.463Z,99.99
2023-01-20T09:49:20.662Z,99.99
2023-01-20T09:50:10.662Z,99.85
2023-01-20T09:51:00.648Z,99.74
2023-01-20T09:51:50.665Z,99.54
2023-01-20T09:52:40.722Z,99.54
2023-01-20T09:53:30.636Z,99.64
2023-01-20T09:54:20.645Z,99.64
2023-01-20T09:55:10.603Z,99.43
2023-01-20T09:56:00.632Z,99.54
2023-01-20T09:56:50.602Z,99.64
2023-01-20T09:57:40.590Z,99.85
2023-01-20T09:58:30.594Z,99.85
2023-01-20T09:59:20.580Z,99.99
2023-01-20T10:00:10.550Z,99.99
2023-01-20T10:01:00.657Z,99.95
2023-01-20T10:01:50.693Z,99.85
2023-01-20T10:02:42.471Z,99.74
2023-01-20T10:03:30.525Z,99.64
2023-01-20T10:04:21.425Z,99.32
2023-01-20T10:05:10.521Z,99.28
2023-01-20T10:06:00.513Z,99.07
2023-01-20T10:06:50.486Z,98.97
2023-01-20T10:07:40.494Z,99.18
2023-01-20T10:08:30.500Z,99.28
2023-01-20T10:09:20.484Z,99.18
2023-01-20T10:10:10.448Z,99.07
2023-01-20T10:11:00.449Z,99.07
2023-01-20T10:11:50.440Z,98.97
2023-01-20T10:12:40.437Z,98.75
2023-01-20T10:13:30.405Z,98.75
2023-01-20T10:14:20.511Z,98.75
2023-01-20T10:15:10.406Z,98.86
2023-01-20T10:16:00.388Z,98.86
2023-01-20T10:16:50.402Z,98.75
2023-01-20T10:17:40.362Z,98.50
2023-01-20T10:18:30.415Z,98.39
2023-01-20T10:19:20.351Z,98.19
2023-01-20T10:20:10.369Z,98.29
2023-01-20T10:21:00.366Z,97.77
2023-01-20T10:21:50.306Z,97.35
2023-01-20T10:22:40.315Z,97.45
2023-01-20T10:23:30.355Z,97.56
2023-01-20T10:24:20.295Z,97.56
2023-01-20T10:25:10.338Z,97.56
2023-01-20T10:26:00.284Z,97.45
2023-01-20T10:26:50.266Z,97.45
2023-01-20T10:27:40.273Z,97.45
2023-01-20T10:28:30.251Z,97.45
2023-01-20T10:29:20.273Z,97.35
2023-01-20T10:30:10.242Z,97.56
2023-01-20T10:31:00.435Z,97.72
2023-01-20T10:31:50.266Z,97.83
2023-01-20T10:32:40.224Z,97.83
2023-01-20T10:33:30.193Z,97.72
2023-01-20T10:34:20.181Z,97.72
2023-01-20T10:35:10.173Z,97.62
2023-01-20T10:36:00.166Z,97.52
2023-01-20T10:36:50.175Z,97.41
2023-01-20T10:37:40.143Z,97.41
2023-01-20T10:38:30.127Z,97.00
2023-01-20T10:39:20.145Z,96.58
2023-01-20T10:40:10.141Z,96.37
2023-01-20T10:41:00.121Z,96.58
2023-01-20T10:41:50.153Z,96.68
2023-01-20T10:42:40.083Z,96.89
2023-01-20T10:43:30.081Z,96.78